Time;durP1;ratioP1;P1;durP2;ratioP2;P2;SDS_P1;SDS_P2;PMS_P1;PMS_P2;Temp;Humidity;BMP_temperature;BMP_pressure;BME280_temperature;BME280_humidity;BME280_pressure;Samples;Min_cycle;Max_cycle;Signal;HPM_P1;HPM_P2
2022/06/04 00:01:08;;;;;;;30.97;16.20;;;8.70;99.90;7.90;100789;;;;585698;242;24156;-75
2022/06/04 00:03:34;;;;;;;29.20;14.07;;;8.70;99.90;7.90;100779;;;;593970;242;24064;-75
2022/06/04 00:06:02;;;;;;;25.20;15.90;;;8.70;99.90;7.90;100775;;;;585175;242;24098;-75
2022/06/04 00:08:30;;;;;;;30.57;17.00;;;8.70;99.90;7.90;100781;;;;585742;242;24070;-74
2022/06/04 00:16:30;;;;;;;27.97;16.00;;;8.60;99.90;7.90;100780;;;;585750;242;24099;-75
2022/06/04 00:18:58;;;;;;;24.93;16.03;;;8.60;99.90;7.80;100780;;;;586300;242;24027;-76
2022/06/04 00:21:29;;;;;;;27.03;17.93;;;8.60;99.90;7.80;100781;;;;586219;242;24139;-84
2022/06/04 00:23:54;;;;;;;30.43;17.37;;;8.60;99.90;7.80;100774;;;;580325;245;24070;-84
2022/06/04 00:26:22;;;;;;;28.87;17.57;;;8.60;99.90;7.80;100779;;;;563201;251;24150;-75
2022/06/04 00:28:53;;;;;;;34.07;19.13;;;8.60;99.90;7.80;100780;;;;584892;242;24146;-76
2022/06/04 00:31:19;;;;;;;32.83;17.90;;;8.60;99.90;7.80;100786;;;;586115;242;24124;-84
2022/06/04 00:33:47;;;;;;;30.63;17.73;;;8.60;99.90;7.80;100790;;;;586382;242;24165;-83
2022/06/04 00:36:15;;;;;;;35.50;18.10;;;8.50;99.90;7.70;100797;;;;585896;242;24129;-76
2022/06/04 00:38:45;;;;;;;31.43;16.67;;;8.50;99.90;7.70;100793;;;;584980;242;24140;-75
2022/06/04 00:41:26;;;;;;;28.00;16.63;;;8.50;99.90;7.70;100798;;;;584900;242;24082;-76
2022/06/04 00:44:17;;;;;;;28.57;16.50;;;8.50;99.90;7.70;100786;;;;576272;245;24101;-76
2022/06/04 00:46:43;;;;;;;31.03;15.07;;;8.50;99.90;7.80;100784;;;;584922;242;24171;-75
2022/06/04 00:49:15;;;;;;;25.57;16.10;;;8.50;99.90;7.80;100785;;;;592427;241;24056;-76
2022/06/04 00:51:44;;;;;;;25.63;17.00;;;8.50;99.90;7.80;100784;;;;594163;238;24089;-76
2022/06/04 00:54:15;;;;;;;31.00;17.13;;;8.60;99.90;7.80;100781;;;;585680;242;24201;-77
2022/06/04 00:56:58;;;;;;;30.07;16.30;;;8.60;99.90;7.80;100781;;;;586898;241;24053;-74
2022/06/04 00:59:53;;;;;;;29.07;16.40;;;8.60;99.90;7.80;100779;;;;580599;242;24072;-77
2022/06/04 01:02:26;;;;;;;29.93;17.70;;;8.60;99.90;7.80;100772;;;;595927;238;24061;-75
2022/06/04 01:05:21;;;;;;;27.27;16.37;;;8.60;99.90;7.80;100769;;;;587279;242;24029;-80
2022/06/04 01:08:41;;;;;;;30.63;16.43;;;8.50;99.90;7.80;100769;;;;581393;244;24074;-77
2022/06/04 01:11:27;;;;;;;31.03;17.17;;;8.50;99.90;7.80;100767;;;;586646;242;24071;-79
2022/06/04 01:14:09;;;;;;;26.63;17.00;;;8.60;99.90;7.80;100764;;;;586002;242;24061;-79
2022/06/04 01:16:46;;;;;;;35.50;18.73;;;8.50;99.90;7.70;100761;;;;586435;242;24062;-80
2022/06/04 01:19:22;;;;;;;30.07;17.20;;;8.50;99.90;7.70;100761;;;;584896;242;24064;-75
2022/06/04 01:22:12;;;;;;;30.03;17.30;;;8.40;99.90;7.70;100764;;;;593021;242;24107;-75
2022/06/04 01:25:04;;;;;;;30.87;16.53;;;8.40;99.90;7.60;100764;;;;585340;242;24054;-75
2022/06/04 01:27:48;;;;;;;28.77;16.93;;;8.40;99.90;7.60;100765;;;;584270;242;24143;-75
2022/06/04 01:30:21;;;;;;;41.55;25.80;;;8.30;99.90;7.60;100761;;;;579210;242;35159;-74
2022/06/04 01:32:55;;;;;;;32.67;18.97;;;8.30;99.90;7.60;100762;;;;590679;242;24057;-75
2022/06/04 01:35:26;;;;;;;28.73;18.17;;;8.30;99.90;7.60;100759;;;;584181;242;24117;-74
2022/06/04 01:38:11;;;;;;;29.17;16.87;;;8.30;99.90;7.60;100765;;;;582742;242;24057;-75
2022/06/04 01:43:28;;;;;;;26.37;16.27;;;8.30;99.90;7.60;100763;;;;584715;242;24108;-81
2022/06/04 01:45:56;;;;;;;33.10;18.33;;;8.30;99.90;7.60;100760;;;;593903;242;24053;-75
2022/06/04 01:48:25;;;;;;;30.53;17.07;;;8.30;99.90;7.60;100754;;;;588152;244;24066;-76
2022/06/04 01:50:55;;;;;;;30.03;18.70;;;8.30;99.90;7.60;100753;;;;593394;238;24115;-75
2022/06/04 01:53:23;;;;;;;30.47;17.03;;;8.30;99.90;7.60;100759;;;;584398;242;24095;-76
2022/06/04 01:55:52;;;;;;;26.00;17.27;;;8.40;99.90;7.60;100756;;;;593314;238;24079;-75
2022/06/04 01:58:25;;;;;;;30.77;17.83;;;8.30;99.90;7.60;100765;;;;593127;239;24056;-75
2022/06/04 02:00:56;;;;;;;27.23;16.77;;;8.30;99.90;7.60;100758;;;;577969;245;24090;-76
2022/06/04 02:03:39;;;;;;;27.83;17.83;;;8.30;99.90;7.60;100757;;;;583751;242;24068;-76
2022/06/04 02:06:10;;;;;;;27.33;17.33;;;8.40;99.90;7.60;100752;;;;584300;242;24057;-77
2022/06/04 02:08:49;;;;;;;25.47;16.10;;;8.40;99.90;7.60;100755;;;;591718;241;24066;-75
2022/06/04 02:11:17;;;;;;;28.17;16.10;;;8.40;99.90;7.70;100760;;;;594384;241;24072;-76
2022/06/04 02:13:46;;;;;;;24.00;16.13;;;8.40;99.90;7.70;100749;;;;594279;238;24051;-77
2022/06/04 02:16:50;;;;;;;25.37;16.40;;;8.40;99.90;7.70;100750;;;;594102;241;24283;-77
2022/06/04 02:19:22;;;;;;;24.37;15.97;;;8.50;99.90;7.80;100744;;;;576959;244;25112;-76
2022/06/04 02:21:46;;;;;;;23.13;16.50;;;8.50;99.90;7.90;100749;;;;583304;242;24093;-76
2022/06/04 02:24:14;;;;;;;43.17;27.50;;;8.60;99.90;8.00;100743;;;;580212;242;35221;-75
2022/06/04 02:26:43;;;;;;;35.93;23.50;;;8.70;99.90;8.10;100746;;;;585085;242;24058;-75
2022/06/04 02:29:10;;;;;;;35.47;19.73;;;8.80;99.90;8.20;100744;;;;585070;242;24055;-75
2022/06/04 02:31:47;;;;;;;28.57;19.77;;;8.90;99.90;8.20;100736;;;;582794;242;24138;-75
2022/06/04 02:34:49;;;;;;;34.03;19.60;;;9.00;99.90;8.30;100735;;;;594032;242;24047;-76
2022/06/04 02:37:28;;;;;;;35.87;18.83;;;9.00;99.90;8.30;100731;;;;584891;242;24048;-76
2022/06/04 02:40:02;;;;;;;32.37;18.03;;;9.10;99.90;8.40;100725;;;;585011;242;24063;-76
2022/06/04 02:42:39;;;;;;;35.43;18.27;;;9.10;99.90;8.40;100728;;;;584919;242;24072;-76
2022/06/04 02:45:13;;;;;;;26.77;17.53;;;9.10;99.90;8.50;100723;;;;575000;245;24069;-77
2022/06/04 02:47:42;;;;;;;22.70;16.07;;;9.30;99.90;8.60;100730;;;;585270;242;24130;-78
2022/06/04 02:50:32;;;;;;;24.77;17.43;;;9.30;99.90;8.70;100725;;;;582713;242;24064;-75
2022/06/04 02:52:58;;;;;;;31.07;16.57;;;9.40;99.90;8.80;100729;;;;578796;245;24094;-76
2022/06/04 02:55:32;;;;;;;26.73;18.07;;;9.50;99.90;8.90;100729;;;;593737;242;24052;-76
2022/06/04 02:58:01;;;;;;;34.20;18.70;;;9.60;99.90;8.90;100725;;;;587784;244;24157;-76
2022/06/04 03:00:32;;;;;;;26.73;17.73;;;9.60;99.90;9.00;100729;;;;593616;238;24067;-76
2022/06/04 03:02:56;;;;;;;26.33;17.93;;;9.70;99.90;9.10;100728;;;;584098;242;24079;-76
2022/06/04 03:05:25;;;;;;;25.70;17.33;;;9.80;99.90;9.10;100726;;;;584435;242;24085;-76
2022/06/04 03:07:54;;;;;;;28.00;17.53;;;9.80;99.90;9.20;100723;;;;593451;242;24094;-76
2022/06/04 03:10:21;;;;;;;29.23;17.87;;;9.90;99.90;9.30;100731;;;;587683;244;24058;-76
2022/06/04 03:12:52;;;;;;;27.87;16.67;;;10.00;99.90;9.30;100725;;;;593412;242;24065;-77
2022/06/04 03:15:16;;;;;;;28.20;18.07;;;10.00;99.90;9.30;100724;;;;593144;240;24059;-77
2022/06/04 03:17:45;;;;;;;30.80;18.27;;;10.10;99.90;9.70;100725;;;;584270;242;24092;-76
2022/06/04 03:20:12;;;;;;;26.73;16.57;;;10.30;99.90;10.30;100732;;;;585560;241;24106;-76
2022/06/04 03:22:40;;;;;;;24.07;15.83;;;10.80;99.90;10.90;100732;;;;579600;244;24137;-76
2022/06/04 03:25:08;;;;;;;22.50;14.90;;;11.40;99.90;11.60;100742;;;;585193;242;24033;-75
2022/06/04 03:27:40;;;;;;;14.93;11.40;;;12.10;99.90;12.10;100742;;;;589078;243;24067;-75
2022/06/04 03:30:05;;;;;;;13.57;11.27;;;13.30;99.90;12.70;100747;;;;585301;242;24071;-75
2022/06/04 03:32:33;;;;;;;14.27;10.77;;;13.30;99.90;13.30;100748;;;;579938;244;24045;-76
2022/06/04 03:35:01;;;;;;;18.63;13.83;;;13.90;99.90;13.90;100747;;;;585316;242;24056;-76
2022/06/04 03:37:29;;;;;;;16.63;13.17;;;14.60;99.90;14.50;100753;;;;585252;242;24045;-76
2022/06/04 03:39:57;;;;;;;19.77;12.33;;;15.30;99.90;15.00;100755;;;;585061;242;24043;-76
2022/06/04 03:42:25;;;;;;;13.60;11.07;;;15.80;99.90;15.50;100751;;;;585129;242;24101;-77
2022/06/04 03:44:53;;;;;;;14.83;10.40;;;16.30;99.90;16.10;100752;;;;585025;242;24040;-76
2022/06/04 03:47:21;;;;;;;9.40;8.30;;;16.90;99.90;16.60;100751;;;;585058;242;24041;-76
2022/06/04 03:49:49;;;;;;;14.20;8.37;;;17.40;99.90;17.10;100752;;;;584754;242;24191;-76
2022/06/04 03:52:20;;;;;;;9.10;7.17;;;17.90;99.90;17.50;100744;;;;584525;242;24130;-78
2022/06/04 03:54:53;;;;;;;11.20;7.77;;;18.30;99.90;17.90;100745;;;;578691;245;24069;-75
2022/06/04 03:57:45;;;;;;;8.40;6.30;;;18.70;99.90;18.50;100749;;;;584265;242;24072;-76
2022/06/04 04:00:13;;;;;;;6.97;5.60;;;20.00;99.90;19.20;100752;;;;587478;244;24061;-76
2022/06/04 04:02:42;;;;;;;5.07;4.67;;;20.70;99.90;19.90;100751;;;;593638;242;24041;-76
2022/06/04 04:05:10;;;;;;;6.83;4.80;;;20.70;99.90;20.50;100750;;;;593678;242;24068;-76
2022/06/04 04:07:38;;;;;;;4.87;4.27;;;21.40;99.90;21.10;100746;;;;584894;242;24052;-75
2022/06/04 04:10:06;;;;;;;4.57;4.17;;;22.00;99.90;21.80;100744;;;;584708;242;24077;-78
2022/06/04 04:12:34;;;;;;;6.00;4.53;;;22.70;99.90;22.40;100734;;;;584303;242;24042;-79
2022/06/04 04:15:02;;;;;;;3.60;3.17;;;23.30;99.90;23.00;100743;;;;584662;242;24061;-76
2022/06/04 04:17:30;;;;;;;3.33;3.10;;;23.90;99.90;23.50;100743;;;;584388;242;24050;-75
2022/06/04 04:19:59;;;;;;;4.20;3.80;;;24.50;97.70;24.10;100743;;;;584918;242;23071;-77
2022/06/04 04:22:28;;;;;;;3.83;3.53;;;25.70;91.60;24.70;100749;;;;585490;242;23134;-75
2022/06/04 04:24:56;;;;;;;3.57;3.20;;;25.60;91.50;25.20;100743;;;;585773;242;23143;-76
2022/06/04 04:27:23;;;;;;;3.03;2.83;;;26.20;87.20;25.70;100747;;;;585722;242;24128;-76
2022/06/04 04:29:52;;;;;;;3.03;2.67;;;27.30;73.50;26.30;100752;;;;580225;242;46010;-76
2022/06/04 04:32:21;;;;;;;4.37;1.93;;;27.50;71.90;26.40;100753;;;;586483;241;23126;-75
2022/06/04 04:34:49;;;;;;;2.00;1.80;;;27.50;71.60;26.80;100756;;;;586070;242;24151;-76
2022/06/04 04:37:17;;;;;;;2.63;2.23;;;27.90;68.90;27.00;100762;;;;586116;242;23090;-75
2022/06/04 04:39:46;;;;;;;2.60;2.30;;;28.10;64.20;27.00;100759;;;;586374;242;23069;-77
2022/06/04 04:42:15;;;;;;;3.93;1.97;;;28.20;63.30;27.20;100757;;;;586593;242;24083;-76
2022/06/04 04:44:43;;;;;;;3.30;1.80;;;28.40;62.30;27.70;100759;;;;595440;238;24114;-76
2022/06/04 04:47:11;;;;;;;2.87;1.92;;;28.70;61.40;28.40;100760;;;;590987;242;24087;-76
2022/06/04 04:49:39;;;;;;;3.22;1.87;;;29.90;58.10;28.80;100765;;;;594339;239;23160;-76
2022/06/04 04:52:08;;;;;;;2.87;2.10;;;30.20;56.40;29.10;100767;;;;584820;242;24110;-77
2022/06/04 04:54:36;;;;;;;2.33;2.12;;;30.20;56.40;29.20;100771;;;;584675;242;23113;-77
2022/06/04 04:57:07;;;;;;;3.58;2.42;;;30.40;55.60;29.30;100767;;;;593900;242;23055;-75
2022/06/04 04:59:37;;;;;;;2.30;2.12;;;30.70;54.80;29.50;100769;;;;593749;242;23063;-76
2022/06/04 05:02:07;;;;;;;5.18;2.70;;;30.60;54.60;29.80;100782;;;;584771;242;23097;-76
2022/06/04 05:04:34;;;;;;;4.22;2.65;;;30.90;54.40;30.20;100773;;;;593491;238;23166;-76
2022/06/04 05:07:02;;;;;;;3.17;2.87;;;31.30;53.50;30.80;100776;;;;585281;242;23082;-76
2022/06/04 05:09:30;;;;;;;7.05;2.72;;;31.80;53.30;30.90;100788;;;;579791;245;23065;-77
2022/06/04 05:11:58;;;;;;;4.25;2.70;;;32.00;51.50;30.90;100790;;;;584692;242;23091;-76
2022/06/04 05:14:25;;;;;;;2.78;2.53;;;32.10;51.60;31.00;100788;;;;584926;242;23061;-75
2022/06/04 05:16:56;;;;;;;3.67;2.67;;;32.20;51.20;31.10;100792;;;;584514;242;23054;-76
2022/06/04 05:19:24;;;;;;;2.78;2.42;;;32.10;50.50;31.40;100793;;;;584585;242;23056;-76
2022/06/04 05:21:55;;;;;;;4.78;2.37;;;32.40;49.40;31.70;100794;;;;588141;244;23066;-76
2022/06/04 05:24:24;;;;;;;2.78;2.20;;;32.70;49.80;32.40;100797;;;;584940;242;23084;-76
2022/06/04 05:26:51;;;;;;;3.85;2.28;;;33.20;49.00;33.00;100798;;;;578997;245;23086;-76
2022/06/04 05:29:22;;;;;;;2.47;2.20;;;33.90;47.80;33.60;100807;;;;584983;242;24048;-76
2022/06/04 05:31:47;;;;;;;5.25;1.98;;;34.40;46.90;33.80;100802;;;;581768;247;23169;-75
2022/06/04 05:34:17;;;;;;;2.92;1.87;;;35.10;44.30;34.30;100812;;;;579828;242;35089;-76
2022/06/04 05:36:48;;;;;;;4.65;2.08;;;35.10;44.20;34.30;100806;;;;584746;242;24106;-76
2022/06/04 05:39:17;;;;;;;4.07;1.80;;;35.20;42.80;33.90;100815;;;;584824;242;23068;-76
2022/06/04 05:41:44;;;;;;;2.67;1.52;;;35.10;42.30;33.70;100815;;;;585001;240;23146;-76
2022/06/04 05:44:10;;;;;;;3.45;1.90;;;34.90;42.30;33.60;100821;;;;586036;242;24083;-74
2022/06/04 05:46:41;;;;;;;3.42;1.80;;;34.90;42.30;33.20;100820;;;;591696;242;24124;-75
2022/06/04 05:49:07;;;;;;;3.25;1.83;;;34.50;42.70;32.20;100821;;;;595467;239;23185;-79
2022/06/04 05:51:35;;;;;;;4.15;1.87;;;33.80;43.20;31.90;100822;;;;585553;242;23121;-76
2022/06/04 05:54:05;;;;;;;3.37;1.80;;;33.20;44.50;32.60;100820;;;;585938;242;23134;-82
2022/06/04 05:56:32;;;;;;;1.92;1.77;;;33.50;44.60;33.40;100828;;;;585925;242;24163;-77
2022/06/04 05:59:00;;;;;;;3.42;2.03;;;34.10;44.10;34.10;100822;;;;585763;238;23076;-77
2022/06/04 06:01:28;;;;;;;2.15;1.80;;;34.80;43.90;35.10;100832;;;;585978;242;23108;-76
2022/06/04 06:03:56;;;;;;;4.85;3.75;;;35.50;42.30;35.30;100833;;;;594984;242;24166;-78
2022/06/04 06:06:24;;;;;;;2.05;1.75;;;36.10;41.80;35.70;100843;;;;595196;242;23062;-76
2022/06/04 06:08:52;;;;;;;1.95;1.62;;;36.40;41.90;36.10;100835;;;;585484;242;23077;-84
2022/06/04 06:11:24;;;;;;;2.90;1.80;;;36.90;40.20;36.40;100839;;;;579654;244;23068;-79
2022/06/04 06:13:49;;;;;;;1.95;1.58;;;37.70;39.90;36.90;100838;;;;584027;242;23070;-76
2022/06/04 06:16:17;;;;;;;3.40;1.87;;;38.10;38.60;37.40;100851;;;;584806;242;24072;-80
2022/06/04 06:18:46;;;;;;;1.73;1.60;;;38.20;39.00;37.30;100855;;;;584585;242;23085;-76
2022/06/04 06:21:14;;;;;;;1.87;1.50;;;38.20;38.40;37.50;100847;;;;584441;242;23075;-83
2022/06/04 06:23:43;;;;;;;2.17;1.55;;;38.40;38.80;37.70;100845;;;;584135;242;23078;-76
2022/06/04 06:26:11;;;;;;;1.65;1.35;;;38.50;38.50;38.00;100848;;;;593635;242;23066;-77
2022/06/04 06:28:39;;;;;;;3.42;1.83;;;38.70;38.40;38.40;100844;;;;584055;242;23070;-77
2022/06/04 06:31:06;;;;;;;1.98;1.67;;;39.00;38.20;38.60;100849;;;;584734;242;24107;-77
2022/06/04 06:33:37;;;;;;;2.65;2.00;;;39.60;37.30;39.10;100850;;;;584817;242;23121;-76
2022/06/04 06:36:03;;;;;;;2.20;1.80;;;39.80;36.30;39.00;100848;;;;591509;242;23078;-76
2022/06/04 06:38:32;;;;;;;2.00;1.73;;;39.80;36.50;39.00;100848;;;;579329;245;23099;-77
2022/06/04 06:41:03;;;;;;;3.58;2.22;;;39.70;36.40;38.90;100844;;;;584769;242;24223;-77
2022/06/04 06:43:36;;;;;;;4.78;2.50;;;39.80;36.50;38.90;100849;;;;584750;242;23070;-80
2022/06/04 06:46:01;;;;;;;2.97;1.80;;;39.80;36.70;39.50;100855;;;;588095;244;23111;-83
2022/06/04 06:48:29;;;;;;;3.17;2.08;;;40.10;37.20;40.10;100860;;;;584075;242;23106;-77
2022/06/04 06:50:57;;;;;;;4.00;2.10;;;40.60;36.30;40.50;100863;;;;594557;239;23130;-76
2022/06/04 06:53:25;;;;;;;2.15;1.80;;;40.90;36.20;40.50;100855;;;;585215;240;23073;-76
2022/06/04 06:55:54;;;;;;;1.92;1.83;;;41.20;35.40;40.50;100866;;;;586238;242;23116;-76
2022/06/04 06:58:22;;;;;;;3.37;1.70;;;41.40;34.40;40.70;100868;;;;585776;242;23137;-77
2022/06/04 07:00:51;;;;;;;3.55;1.75;;;41.40;34.70;40.10;100867;;;;585581;242;23072;-75
2022/06/04 07:03:18;;;;;;;2.12;1.98;;;41.20;34.50;39.30;100868;;;;585459;242;23051;-75
2022/06/04 07:05:46;;;;;;;2.10;1.87;;;40.50;35.00;39.20;100868;;;;585376;242;23059;-77
2022/06/04 07:08:14;;;;;;;5.40;2.22;;;40.10;35.80;38.60;100863;;;;585064;242;23059;-79
2022/06/04 07:10:42;;;;;;;2.85;2.35;;;39.60;36.20;38.40;100867;;;;585348;242;23070;-75
2022/06/04 07:13:10;;;;;;;4.47;2.45;;;39.30;36.60;38.60;100865;;;;585173;242;23112;-76
2022/06/04 07:15:38;;;;;;;3.47;2.37;;;39.40;36.90;38.70;100857;;;;585123;242;23100;-76
2022/06/04 07:18:07;;;;;;;4.55;2.20;;;39.90;37.60;39.30;100858;;;;585193;242;23055;-76
2022/06/04 07:20:35;;;;;;;5.18;2.37;;;40.40;37.30;40.00;100862;;;;585242;242;23047;-77
2022/06/04 07:23:04;;;;;;;3.67;2.50;;;40.80;37.10;40.60;100861;;;;585253;242;23062;-77
2022/06/04 07:25:33;;;;;;;3.10;2.67;;;40.80;37.00;41.40;100857;;;;584874;242;23084;-81
2022/06/04 07:28:04;;;;;;;3.30;2.85;;;41.70;36.70;41.90;100856;;;;579757;244;23086;-81
2022/06/04 07:30:30;;;;;;;4.80;2.80;;;42.50;35.10;41.90;100851;;;;573055;246;23087;-77
2022/06/04 07:32:58;;;;;;;6.40;3.03;;;42.60;35.30;42.10;100859;;;;594105;237;23114;-77
2022/06/04 07:35:26;;;;;;;3.45;3.15;;;42.70;35.60;42.30;100854;;;;584993;242;23125;-77
2022/06/04 07:37:54;;;;;;;6.93;3.40;;;42.80;35.50;42.90;100863;;;;585670;242;23123;-77
2022/06/04 07:40:22;;;;;;;3.72;2.72;;;43.20;35.40;43.20;100858;;;;585590;242;23079;-77
2022/06/04 07:42:50;;;;;;;5.12;3.08;;;43.60;34.90;42.80;100865;;;;585618;242;23079;-80
2022/06/04 07:45:18;;;;;;;3.05;2.80;;;43.70;34.10;42.40;100866;;;;585425;242;23097;-78
2022/06/04 07:47:46;;;;;;;5.97;3.25;;;43.40;34.80;42.10;100871;;;;585462;242;23122;-77
2022/06/04 07:50:14;;;;;;;5.37;3.10;;;43.10;34.40;41.90;100866;;;;585679;242;23067;-78
2022/06/04 07:52:42;;;;;;;2.97;2.75;;;43.00;34.40;41.80;100876;;;;585713;242;23146;-76
2022/06/04 07:55:14;;;;;;;3.75;3.12;;;42.80;34.40;41.40;100881;;;;585762;242;23052;-81
2022/06/04 07:57:40;;;;;;;3.97;2.65;;;42.40;34.70;41.20;100880;;;;594478;242;23061;-80
2022/06/04 08:00:09;;;;;;;5.20;3.65;;;42.10;35.00;41.50;100887;;;;590886;241;23094;-79
2022/06/04 08:02:34;;;;;;;4.18;3.47;;;42.20;35.70;41.80;100886;;;;591718;242;23062;-75
2022/06/04 08:05:01;;;;;;;4.47;2.90;;;42.30;35.30;42.00;100891;;;;595808;239;23113;-77
2022/06/04 08:07:30;;;;;;;5.35;3.50;;;42.70;34.60;42.10;100881;;;;586561;242;23069;-77
2022/06/04 08:09:59;;;;;;;3.85;3.40;;;42.70;34.90;41.90;100880;;;;586261;242;24063;-75
2022/06/04 08:12:33;;;;;;;6.15;3.50;;;42.80;35.00;42.30;100879;;;;585694;242;23107;-76
2022/06/04 08:14:59;;;;;;;4.40;3.60;;;43.00;34.90;42.50;100881;;;;588716;244;23068;-76
2022/06/04 08:17:27;;;;;;;6.00;3.75;;;43.00;34.90;42.50;100882;;;;585319;242;23118;-76
2022/06/04 08:19:55;;;;;;;5.95;4.12;;;43.20;34.70;42.70;100896;;;;585319;242;23082;-77
2022/06/04 08:22:23;;;;;;;4.70;4.18;;;43.40;34.50;42.80;100901;;;;585303;242;23059;-76
2022/06/04 08:24:50;;;;;;;6.20;4.45;;;43.40;34.90;42.70;100895;;;;585050;242;23070;-77
2022/06/04 08:27:19;;;;;;;6.30;5.10;;;42.80;35.50;41.90;100912;;;;584790;242;23060;-76
2022/06/04 08:29:48;;;;;;;7.47;5.22;;;42.10;36.30;41.20;100903;;;;584675;242;24064;-76
2022/06/04 08:32:20;;;;;;;6.47;4.50;;;41.60;36.30;40.90;100913;;;;591184;242;23072;-75
2022/06/04 08:34:51;;;;;;;6.05;4.95;;;41.60;36.30;40.80;100913;;;;584737;242;23058;-75
2022/06/04 08:37:15;;;;;;;4.93;4.53;;;41.40;36.40;40.70;100909;;;;584832;242;23047;-75
2022/06/04 08:39:44;;;;;;;5.65;4.60;;;41.50;36.70;40.90;100922;;;;585119;242;23063;-77
2022/06/04 08:42:13;;;;;;;5.00;4.30;;;41.60;36.30;40.90;100915;;;;585187;242;23120;-77
2022/06/04 08:44:55;;;;;;;7.10;4.07;;;41.60;36.30;40.30;100914;;;;584808;242;23090;-77
2022/06/04 08:47:32;;;;;;;3.92;3.42;;;41.20;36.30;40.30;100916;;;;584880;242;23066;-76
2022/06/04 08:49:59;;;;;;;4.60;3.60;;;41.00;36.30;40.60;100909;;;;584274;242;23070;-75
2022/06/04 08:52:52;;;;;;;4.15;3.50;;;41.10;36.40;41.00;100916;;;;593192;239;23055;-83
2022/06/04 08:58:37;;;;;;;3.78;3.47;;;41.40;35.40;40.20;100914;;;;585444;242;23117;-80
2022/06/04 09:01:24;;;;;;;4.37;2.90;;;41.00;35.80;40.00;100920;;;;592943;242;23165;-77
2022/06/04 09:04:25;;;;;;;3.85;3.00;;;40.80;35.80;39.60;100930;;;;585051;242;23083;-77
2022/06/04 09:07:03;;;;;;;2.58;2.30;;;40.40;36.10;39.30;100925;;;;584917;242;23082;-76
2022/06/04 09:09:45;;;;;;;2.42;2.22;;;40.20;35.30;39.50;100918;;;;584487;242;23068;-77
2022/06/04 09:12:35;;;;;;;4.82;2.00;;;40.20;35.00;39.60;100927;;;;581557;242;23093;-76
2022/06/04 09:15:14;;;;;;;3.20;2.25;;;40.20;35.20;39.50;100921;;;;590665;242;23164;-76
2022/06/04 09:17:53;;;;;;;2.12;2.03;;;40.20;35.20;39.50;100926;;;;586293;244;23082;-81
2022/06/04 09:20:48;;;;;;;2.53;2.22;;;40.30;34.20;39.50;100913;;;;585974;242;23062;-82
2022/06/04 09:23:24;;;;;;;3.95;2.30;;;40.50;34.60;39.00;100920;;;;585219;242;24107;-80
2022/06/04 09:26:16;;;;;;;4.45;1.80;;;40.10;34.90;39.20;100919;;;;585240;242;23117;-80
2022/06/04 09:28:45;;;;;;;2.17;2.03;;;40.60;35.30;39.80;100926;;;;594148;242;23076;-78
2022/06/04 09:31:50;;;;;;;2.85;2.15;;;40.50;34.90;39.60;100926;;;;584538;242;24143;-76
2022/06/04 09:34:21;;;;;;;3.37;2.15;;;40.70;34.30;39.80;100926;;;;584653;242;24132;-76
2022/06/04 09:36:48;;;;;;;2.12;2.03;;;40.80;34.50;39.90;100931;;;;584802;242;23097;-76
2022/06/04 09:39:28;;;;;;;4.05;2.78;;;40.90;34.60;40.10;100923;;;;584924;242;23102;-76
2022/06/04 09:41:56;;;;;;;2.60;2.35;;;41.10;34.40;40.40;100923;;;;584999;242;23063;-76
2022/06/04 09:44:24;;;;;;;2.30;2.20;;;41.40;34.20;40.70;100927;;;;579537;243;24096;-77
2022/06/04 09:46:52;;;;;;;1.92;1.83;;;41.70;33.60;40.80;100927;;;;584993;242;23061;-78
2022/06/04 09:49:35;;;;;;;2.58;2.45;;;41.90;34.00;41.10;100928;;;;584603;242;23075;-76
2022/06/04 09:52:36;;;;;;;4.30;2.90;;;42.10;34.90;41.50;100924;;;;578515;244;23104;-78
2022/06/04 09:55:16;;;;;;;2.87;2.55;;;42.40;33.80;41.50;100928;;;;584412;242;23138;-76
2022/06/04 09:57:44;;;;;;;2.95;2.65;;;42.60;34.10;39.80;100929;;;;583872;242;23106;-77
2022/06/04 10:00:21;;;;;;;3.20;2.90;;;41.70;33.90;38.50;100934;;;;583521;242;23077;-77
2022/06/04 10:02:55;;;;;;;5.20;3.42;;;40.50;35.00;38.30;100934;;;;584035;242;23079;-81
2022/06/04 10:05:24;;;;;;;3.42;3.15;;;40.00;36.80;38.70;100935;;;;584239;242;24113;-77
2022/06/04 10:07:51;;;;;;;3.65;3.15;;;40.00;36.50;38.70;100940;;;;584116;242;23063;-78
2022/06/04 10:10:27;;;;;;;3.67;3.33;;;40.20;35.90;37.50;100941;;;;593550;238;23133;-77
2022/06/04 10:15:47;;;;;;;3.62;3.33;;;38.50;37.20;36.20;100940;;;;584092;242;23076;-77
2022/06/04 10:18:28;;;;;;;6.60;3.97;;;37.70;38.60;35.50;100940;;;;584229;242;23100;-78
2022/06/04 10:21:20;;;;;;;4.45;3.35;;;35.90;41.10;34.40;100949;;;;583974;242;23099;-76
2022/06/04 10:23:47;;;;;;;6.62;3.87;;;35.80;41.00;32.50;100939;;;;593657;242;23059;-79
2022/06/04 10:26:57;;;;;;;5.07;4.20;;;34.20;42.70;31.70;100951;;;;584097;242;23114;-77
2022/06/04 10:29:41;;;;;;;5.87;4.22;;;33.10;44.30;31.40;100941;;;;580179;243;23078;-74
2022/06/04 10:32:15;;;;;;;4.18;3.58;;;31.50;46.00;30.20;100939;;;;585186;242;24166;-75
2022/06/04 10:35:14;;;;;;;4.93;4.00;;;31.40;46.00;29.10;100933;;;;590259;242;23105;-79
2022/06/04 10:37:53;;;;;;;6.40;3.95;;;30.30;47.80;27.90;100937;;;;585285;242;23066;-76
2022/06/04 10:40:36;;;;;;;4.43;3.87;;;29.00;50.10;26.90;100939;;;;594171;241;24190;-74
2022/06/04 10:43:13;;;;;;;4.17;3.80;;;26.60;54.10;25.80;100932;;;;592094;242;23098;-77
2022/06/04 10:46:36;;;;;;;6.27;4.13;;;25.80;56.20;25.10;100938;;;;584919;242;23059;-78
2022/06/04 10:49:48;;;;;;;8.63;4.73;;;24.90;58.20;24.20;100928;;;;583229;244;23170;-77
2022/06/04 10:52:28;;;;;;;5.43;4.93;;;24.70;58.10;23.40;100930;;;;579726;242;35107;-78
2022/06/04 10:55:11;;;;;;;5.20;4.00;;;24.10;60.00;22.80;100938;;;;584286;242;24084;-77
2022/06/04 10:57:48;;;;;;;6.00;4.33;;;22.90;63.90;22.40;100929;;;;584461;242;24080;-77
2022/06/04 11:00:25;;;;;;;4.93;4.03;;;22.30;64.80;21.70;100921;;;;584543;244;24097;-77
2022/06/04 11:03:24;;;;;;;6.87;4.30;;;22.30;64.80;21.00;100927;;;;592581;239;24083;-76
2022/06/04 11:05:58;;;;;;;5.13;4.60;;;21.30;69.40;20.70;100926;;;;584413;242;24056;-77
2022/06/04 11:08:54;;;;;;;4.77;4.27;;;21.00;70.30;20.50;100915;;;;584365;242;24067;-77
2022/06/04 11:11:43;;;;;;;4.53;4.13;;;20.90;70.20;20.10;100920;;;;584681;243;24073;-78
2022/06/04 11:14:11;;;;;;;5.53;4.30;;;20.70;71.60;19.90;100919;;;;592290;242;24068;-77
2022/06/04 11:16:39;;;;;;;5.00;4.50;;;20.40;73.00;19.60;100919;;;;584142;242;23083;-76
2022/06/04 11:19:15;;;;;;;5.23;4.37;;;20.10;73.50;19.30;100914;;;;584140;242;24110;-77
2022/06/04 11:21:43;;;;;;;6.30;4.33;;;19.80;74.50;19.10;100921;;;;579065;245;23101;-77
2022/06/04 11:24:20;;;;;;;5.50;4.40;;;19.70;75.50;18.90;100926;;;;579263;242;24095;-77
2022/06/04 11:27:11;;;;;;;5.40;4.90;;;19.50;75.80;18.70;100926;;;;593664;239;24031;-78
2022/06/04 11:29:39;;;;;;;8.03;4.87;;;19.30;77.30;18.60;100910;;;;583941;242;24110;-77
2022/06/04 11:32:38;;;;;;;4.73;4.33;;;19.20;78.40;18.60;100923;;;;583992;242;24058;-78
2022/06/04 11:35:15;;;;;;;4.93;4.40;;;19.10;79.00;18.50;100913;;;;584315;242;25115;-78
2022/06/04 11:37:57;;;;;;;11.50;4.87;;;19.10;78.90;18.60;100911;;;;584347;242;24168;-77
2022/06/04 11:40:54;;;;;;;7.13;4.63;;;19.20;80.20;18.70;100914;;;;585278;241;24060;-77
2022/06/04 11:43:55;;;;;;;6.47;4.60;;;19.20;80.20;18.60;100928;;;;579670;244;26256;-78
2022/06/04 11:46:41;;;;;;;5.17;4.40;;;19.20;79.70;18.60;100921;;;;592683;242;24086;-78
2022/06/04 11:49:26;;;;;;;8.07;4.50;;;19.20;79.70;18.40;100922;;;;588599;244;24071;-78
2022/06/04 11:52:03;;;;;;;8.10;4.27;;;19.00;81.10;18.10;100906;;;;593323;242;24057;-78